Time,TemperatureF,DewpointF,PressureIn,WindDirection,WindDirectionDegrees,WindSpeedMPH,WindSpeedGustMPH,Humidity,HourlyPrecipIn,Conditions,Clouds,dailyrainin,SoftwareType,DateUTC
2013-05-16 00:05:00,65.2,59.9,30.06,SE,136,0.0,0.0,83,0.00,,,0.00,Wunderground v.1.15,2013-05-16 04:05:00,
2013-05-16 00:10:00,65.1,59.8,30.06,SE,136,0.0,0.0,83,0.00,,,0.00,Wunderground v.1.15,2013-05-16 04:10:00,
2013-05-16 00:15:00,65.4,59.8,30.06,SE,144,1.0,1.0,82,0.00,,,0.00,Wunderground v.1.15,2013-05-16 04:15:00,
2013-05-16 00:20:00,65.7,59.7,30.06,SE,144,1.0,1.0,81,0.00,,,0.00,Wunderground v.1.15,2013-05-16 04:20:00,
2013-05-16 00:25:00,65.8,59.8,30.06,SE,144,0.0,1.0,81,0.00,,,0.00,Wunderground v.1.15,2013-05-16 04:25:00,
2013-05-16 00:30:00,65.8,59.5,30.06,SE,144,0.0,1.0,80,0.00,,,0.00,Wunderground v.1.15,2013-05-16 04:30:00,
2013-05-16 00:35:00,66.1,59.4,30.06,SE,145,0.0,1.0,79,0.00,,,0.00,Wunderground v.1.15,2013-05-16 04:35:00,
2013-05-16 00:45:00,67.0,59.5,30.06,SSE,152,1.0,1.0,77,0.00,,,0.00,Wunderground v.1.15,2013-05-16 04:45:00,
2013-05-16 00:50:00,67.0,59.5,30.06,SSE,152,0.0,0.0,77,0.00,,,0.00,Wunderground v.1.15,2013-05-16 04:50:00,
2013-05-16 00:55:00,67.1,59.3,30.06,SSE,152,0.0,2.0,76,0.00,,,0.00,Wunderground v.1.15,2013-05-16 04:55:00,
2013-05-16 01:00:00,67.0,59.2,30.06,SSE,153,0.0,2.0,76,0.00,,,0.00,Wunderground v.1.15,2013-05-16 05:00:00,
2013-05-16 01:10:00,66.4,59.3,30.06,SSE,153,0.0,0.0,78,0.00,,,0.00,Wunderground v.1.15,2013-05-16 05:10:00,
2013-05-16 01:20:00,65.8,59.1,30.06,South,181,0.0,0.0,79,0.00,,,0.00,Wunderground v.1.15,2013-05-16 05:20:00,
2013-05-16 01:25:00,65.7,59.0,30.06,South,181,0.0,0.0,79,0.00,,,0.00,Wunderground v.1.15,2013-05-16 05:25:00,
2013-05-16 01:35:00,65.6,59.3,30.05,WNW,290,0.0,1.0,80,0.00,,,0.00,Wunderground v.1.15,2013-05-16 05:35:00,
2013-05-16 01:45:00,65.2,59.2,30.05,WNW,290,0.0,0.0,81,0.00,,,0.00,Wunderground v.1.15,2013-05-16 05:45:00,
2013-05-16 01:50:00,65.1,59.1,30.05,WNW,290,0.0,0.0,81,0.00,,,0.00,Wunderground v.1.15,2013-05-16 05:50:00,
2013-05-16 01:55:00,65.0,59.4,30.04,WNW,290,0.0,0.0,82,0.00,,,0.00,Wunderground v.1.15,2013-05-16 05:55:00,
2013-05-16 02:05:00,64.6,59.0,30.04,WNW,290,0.0,0.0,82,0.00,,,0.00,Wunderground v.1.15,2013-05-16 06:05:00,
2013-05-16 02:10:00,64.2,59.3,30.04,WNW,290,0.0,0.0,84,0.00,,,0.00,Wunderground v.1.15,2013-05-16 06:10:00,
2013-05-16 02:15:00,64.0,59.1,30.04,WNW,290,0.0,0.0,84,0.00,,,0.00,Wunderground v.1.15,2013-05-16 06:15:00,
2013-05-16 02:25:00,63.5,58.9,30.04,WNW,290,0.0,0.0,85,0.00,,,0.00,Wunderground v.1.15,2013-05-16 06:25:00,
2013-05-16 02:30:00,63.3,59.0,30.04,WNW,290,0.0,0.0,86,0.00,,,0.00,Wunderground v.1.15,2013-05-16 06:30:00,
2013-05-16 02:40:00,63.2,58.9,30.04,WNW,290,0.0,0.0,86,0.00,,,0.00,Wunderground v.1.15,2013-05-16 06:40:00,
2013-05-16 02:50:00,63.5,59.2,30.03,West,280,1.0,1.0,86,0.00,,,0.00,Wunderground v.1.15,2013-05-16 06:50:00,
2013-05-16 02:55:00,63.6,59.0,30.03,West,280,1.0,1.0,85,0.00,,,0.00,Wunderground v.1.15,2013-05-16 06:55:00,
2013-05-16 03:05:00,64.7,59.4,30.03,SSE,160,0.0,0.0,83,0.00,,,0.00,Wunderground v.1.15,2013-05-16 07:05:00,
2013-05-16 03:10:00,64.7,59.4,30.03,SSE,160,0.0,0.0,83,0.00,,,0.00,Wunderground v.1.15,2013-05-16 07:10:00,
2013-05-16 03:20:00,64.8,59.2,30.03,SSE,160,0.0,1.0,82,0.00,,,0.00,Wunderground v.1.15,2013-05-16 07:20:00,
2013-05-16 03:25:00,64.9,59.6,30.03,SSE,160,0.0,1.0,83,0.00,,,0.00,Wunderground v.1.15,2013-05-16 07:25:00,
2013-05-16 03:35:00,64.7,59.4,30.03,SSE,160,0.0,0.0,83,0.00,,,0.00,Wunderground v.1.15,2013-05-16 07:35:00,
2013-05-16 03:40:00,64.6,59.3,30.03,SSE,161,0.0,0.0,83,0.00,,,0.00,Wunderground v.1.15,2013-05-16 07:40:00,
2013-05-16 03:50:00,64.6,59.3,30.03,SSE,162,0.0,1.0,83,0.00,,,0.00,Wunderground v.1.15,2013-05-16 07:50:00,
2013-05-16 03:55:00,64.4,59.1,30.03,SSE,162,0.0,1.0,83,0.00,,,0.00,Wunderground v.1.15,2013-05-16 07:55:00,
2013-05-16 04:05:00,63.8,58.9,30.03,SSE,161,0.0,0.0,84,0.00,,,0.00,Wunderground v.1.15,2013-05-16 08:05:00,
2013-05-16 04:10:00,63.3,58.7,30.03,SSE,161,0.0,0.0,85,0.00,,,0.00,Wunderground v.1.15,2013-05-16 08:10:00,
2013-05-16 04:15:00,62.9,58.6,30.03,SSE,161,0.0,0.0,86,0.00,,,0.00,Wunderground v.1.15,2013-05-16 08:15:00,
2013-05-16 04:25:00,62.2,58.6,30.03,SSE,162,0.0,0.0,88,0.00,,,0.00,Wunderground v.1.15,2013-05-16 08:25:00,
2013-05-16 04:30:00,61.8,58.2,30.03,SSE,162,0.0,0.0,88,0.00,,,0.00,Wunderground v.1.15,2013-05-16 08:30:00,
2013-05-16 04:40:00,61.2,57.9,30.03,SSE,162,0.0,0.0,89,0.00,,,0.00,Wunderground v.1.15,2013-05-16 08:40:00,
2013-05-16 04:45:00,61.0,58.0,30.03,SSE,161,0.0,0.0,90,0.00,,,0.00,Wunderground v.1.15,2013-05-16 08:45:00,
2013-05-16 04:50:00,60.7,58.1,30.03,SSE,162,0.0,0.0,91,0.00,,,0.00,Wunderground v.1.15,2013-05-16 08:50:00,
2013-05-16 04:55:00,60.6,58.0,30.03,SSE,162,0.0,0.0,91,0.00,,,0.00,Wunderground v.1.15,2013-05-16 08:55:00,
2013-05-16 05:05:00,59.9,57.6,30.04,SSE,162,0.0,0.0,92,0.00,,,0.00,Wunderground v.1.15,2013-05-16 09:05:00,
2013-05-16 05:10:00,59.6,57.3,30.04,SSE,161,0.0,0.0,92,0.00,,,0.00,Wunderground v.1.15,2013-05-16 09:10:00,
2013-05-16 05:20:00,59.6,57.6,30.04,South,169,0.0,1.0,93,0.00,,,0.00,Wunderground v.1.15,2013-05-16 09:20:00,
2013-05-16 05:25:00,59.9,58.2,30.04,South,170,0.0,1.0,94,0.00,,,0.00,Wunderground v.1.15,2013-05-16 09:25:00,
2013-05-16 05:35:00,60.5,58.2,30.04,South,171,0.0,1.0,92,0.00,,,0.00,Wunderground v.1.15,2013-05-16 09:35:00,
2013-05-16 05:40:00,60.7,58.4,30.03,South,171,0.0,1.0,92,0.00,,,0.00,Wunderground v.1.15,2013-05-16 09:40:00,
2013-05-16 05:50:00,60.9,58.3,30.04,South,171,0.0,0.0,91,0.00,,,0.00,Wunderground v.1.15,2013-05-16 09:50:00,
2013-05-16 05:55:00,60.6,58.0,30.04,South,171,0.0,0.0,91,0.00,,,0.00,Wunderground v.1.15,2013-05-16 09:55:00,
2013-05-16 06:00:00,60.2,57.6,30.04,South,171,0.0,0.0,91,0.00,,,0.00,Wunderground v.1.15,2013-05-16 10:00:00,
2013-05-16 06:05:00,59.8,57.5,30.05,South,171,0.0,0.0,92,0.00,,,0.00,Wunderground v.1.15,2013-05-16 10:05:00,
2013-05-16 06:10:00,59.6,57.3,30.05,South,171,0.0,0.0,92,0.00,,,0.00,Wunderground v.1.15,2013-05-16 10:10:00,
2013-05-16 06:15:00,59.5,57.5,30.05,South,171,0.0,0.0,93,0.00,,,0.00,Wunderground v.1.15,2013-05-16 10:15:00,
2013-05-16 06:20:00,59.5,57.5,30.06,South,171,0.0,3.0,93,0.00,,,0.00,Wunderground v.1.15,2013-05-16 10:20:00,
2013-05-16 06:30:00,59.0,57.3,30.06,South,171,1.0,1.0,94,0.00,,,0.00,Wunderground v.1.15,2013-05-16 10:30:00,
2013-05-16 06:40:00,59.0,57.3,30.06,South,169,0.0,0.0,94,0.00,,,0.00,Wunderground v.1.15,2013-05-16 10:40:00,
2013-05-16 06:50:00,59.5,57.8,30.06,NNW,329,0.0,0.0,94,0.00,,,0.00,Wunderground v.1.15,2013-05-16 10:50:00,
2013-05-16 06:55:00,59.9,58.2,30.06,NNW,329,0.0,0.0,94,0.00,,,0.00,Wunderground v.1.15,2013-05-16 10:55:00,
2013-05-16 07:00:00,60.2,58.5,30.06,NNW,329,0.0,0.0,94,0.00,,,0.00,Wunderground v.1.15,2013-05-16 11:00:00,
2013-05-16 07:10:00,60.5,58.5,30.07,NNW,328,0.0,0.0,93,0.00,,,0.00,Wunderground v.1.15,2013-05-16 11:10:00,
2013-05-16 07:15:00,60.7,58.7,30.07,North,5,0.0,0.0,93,0.00,,,0.00,Wunderground v.1.15,2013-05-16 11:15:00,
2013-05-16 07:25:00,61.4,59.4,30.07,NE,36,0.0,1.0,93,0.00,,,0.00,Wunderground v.1.15,2013-05-16 11:25:00,
2013-05-16 07:30:00,61.6,59.6,30.07,NE,36,0.0,0.0,93,0.00,,,0.00,Wunderground v.1.15,2013-05-16 11:30:00,
2013-05-16 07:35:00,62.0,60.0,30.08,NE,36,0.0,0.0,93,0.00,,,0.00,Wunderground v.1.15,2013-05-16 11:35:00,
2013-05-16 07:45:00,63.0,60.6,30.08,NE,36,0.0,0.0,92,0.00,,,0.00,Wunderground v.1.15,2013-05-16 11:45:00,
2013-05-16 07:50:00,63.3,60.6,30.08,NE,56,0.0,1.0,91,0.00,,,0.00,Wunderground v.1.15,2013-05-16 11:50:00,
2013-05-16 08:00:00,64.1,60.5,30.09,SW,232,0.0,2.0,88,0.00,,,0.00,Wunderground v.1.15,2013-05-16 12:00:00,
2013-05-16 08:05:00,64.5,60.5,30.09,WSW,240,1.0,2.0,87,0.00,,,0.00,Wunderground v.1.15,2013-05-16 12:05:00,
2013-05-16 08:10:00,64.9,60.9,30.09,SSW,202,1.0,1.0,87,0.00,,,0.00,Wunderground v.1.15,2013-05-16 12:10:00,
2013-05-16 08:20:00,65.5,61.2,30.09,SE,130,1.0,1.0,86,0.00,,,0.00,Wunderground v.1.15,2013-05-16 12:20:00,
2013-05-16 08:25:00,66.0,61.0,30.09,SSW,201,1.0,5.0,84,0.00,,,0.00,Wunderground v.1.15,2013-05-16 12:25:00,
2013-05-16 08:35:00,67.4,62.1,30.10,SW,234,1.0,3.0,83,0.00,,,0.00,Wunderground v.1.15,2013-05-16 12:35:00,
2013-05-16 08:40:00,68.1,62.0,30.10,South,178,1.0,2.0,81,0.00,,,0.00,Wunderground v.1.15,2013-05-16 12:40:00,
2013-05-16 08:45:00,68.8,62.4,30.10,SSE,163,2.0,2.0,80,0.00,,,0.00,Wunderground v.1.15,2013-05-16 12:45:00,
2013-05-16 08:50:00,69.3,62.5,30.10,NW,322,1.0,1.0,79,0.00,,,0.00,Wunderground v.1.15,2013-05-16 12:50:00,
2013-05-16 09:00:00,69.2,62.0,30.11,SSW,193,2.0,2.0,78,0.00,,,0.00,Wunderground v.1.15,2013-05-16 13:00:00,
2013-05-16 09:05:00,69.2,62.4,30.10,SSW,205,2.0,2.0,79,0.00,,,0.00,Wunderground v.1.15,2013-05-16 13:05:00,
2013-05-16 09:10:00,69.3,62.1,30.10,WSW,246,1.0,2.0,78,0.00,,,0.00,Wunderground v.1.15,2013-05-16 13:10:00,
2013-05-16 09:15:00,69.3,62.5,30.11,West,269,2.0,2.0,79,0.00,,,0.00,Wunderground v.1.15,2013-05-16 13:15:00,
2013-05-16 09:20:00,69.3,62.5,30.11,West,271,2.0,5.0,79,0.00,,,0.00,Wunderground v.1.15,2013-05-16 13:20:00,
2013-05-16 09:30:00,69.5,62.7,30.11,SSW,209,1.0,1.0,79,0.00,,,0.00,Wunderground v.1.15,2013-05-16 13:30:00,
2013-05-16 09:35:00,69.6,62.8,30.11,WSW,249,1.0,2.0,79,0.00,,,0.00,Wunderground v.1.15,2013-05-16 13:35:00,
2013-05-16 09:40:00,69.5,63.1,30.11,SSE,159,2.0,2.0,80,0.00,,,0.00,Wunderground v.1.15,2013-05-16 13:40:00,
2013-05-16 09:50:00,69.7,62.9,30.11,SW,221,2.0,2.0,79,0.00,,,0.00,Wunderground v.1.15,2013-05-16 13:50:00,
2013-05-16 10:00:00,70.0,62.8,30.10,SW,215,2.0,2.0,78,0.00,,,0.00,Wunderground v.1.15,2013-05-16 14:00:00,
2013-05-16 10:10:00,70.2,63.0,30.10,West,269,1.0,1.0,78,0.00,,,0.00,Wunderground v.1.15,2013-05-16 14:10:00,
2013-05-16 10:20:00,70.1,63.6,30.11,WSW,250,1.0,1.0,80,0.00,,,0.00,Wunderground v.1.15,2013-05-16 14:20:00,
2013-05-16 10:25:00,70.2,63.7,30.11,WSW,251,1.0,1.0,80,0.00,,,0.00,Wunderground v.1.15,2013-05-16 14:25:00,
2013-05-16 10:30:00,70.3,64.2,30.11,WSW,245,0.0,0.0,81,0.00,,,0.00,Wunderground v.1.15,2013-05-16 14:30:00,
2013-05-16 10:40:00,70.6,64.8,30.11,SW,216,1.0,1.0,82,0.00,,,0.00,Wunderground v.1.15,2013-05-16 14:40:00,
2013-05-16 10:50:00,70.9,64.4,30.11,SSW,211,0.0,1.0,80,0.00,,,0.00,Wunderground v.1.15,2013-05-16 14:50:00,
2013-05-16 10:55:00,70.9,64.4,30.11,SSW,207,1.0,1.0,80,0.00,,,0.00,Wunderground v.1.15,2013-05-16 14:55:00,
2013-05-16 11:00:00,70.8,64.3,30.10,SSW,211,1.0,2.0,80,0.00,,,0.00,Wunderground v.1.15,2013-05-16 15:00:00,
2013-05-16 11:10:00,70.8,64.7,30.11,SSW,211,1.0,1.0,81,0.00,,,0.00,Wunderground v.1.15,2013-05-16 15:10:00,
2013-05-16 11:15:00,71.0,64.9,30.11,SSW,196,1.0,1.0,81,0.00,,,0.00,Wunderground v.1.15,2013-05-16 15:15:00,
2013-05-16 11:20:00,71.3,64.8,30.11,SSW,197,1.0,1.0,80,0.00,,,0.00,Wunderground v.1.15,2013-05-16 15:20:00,
2013-05-16 11:30:00,72.2,65.3,30.12,SSE,150,2.0,2.0,79,0.00,,,0.00,Wunderground v.1.15,2013-05-16 15:30:00,
2013-05-16 11:40:00,73.2,64.8,30.12,West,260,2.0,2.0,75,0.00,,,0.00,Wunderground v.1.15,2013-05-16 15:40:00,
2013-05-16 11:50:00,73.8,65.0,30.12,WSW,240,3.0,4.0,74,0.00,,,0.00,Wunderground v.1.15,2013-05-16 15:50:00,
2013-05-16 11:55:00,74.2,65.4,30.12,West,260,2.0,4.0,74,0.00,,,0.00,Wunderground v.1.15,2013-05-16 15:55:00,
2013-05-16 12:05:00,74.5,65.7,30.12,SW,221,2.0,3.0,74,0.00,,,0.00,Wunderground v.1.15,2013-05-16 16:05:00,
2013-05-16 12:10:00,74.6,65.8,30.12,West,271,2.0,2.0,74,0.00,,,0.00,Wunderground v.1.15,2013-05-16 16:10:00,
2013-05-16 12:15:00,74.7,65.9,30.12,SW,215,2.0,2.0,74,0.00,,,0.00,Wunderground v.1.15,2013-05-16 16:15:00,
2013-05-16 12:25:00,75.4,65.7,30.11,WNW,290,2.0,3.0,72,0.00,,,0.00,Wunderground v.1.15,2013-05-16 16:25:00,
2013-05-16 12:35:00,76.8,65.9,30.11,SSW,203,2.0,3.0,69,0.00,,,0.00,Wunderground v.1.15,2013-05-16 16:35:00,
2013-05-16 12:40:00,77.6,66.6,30.10,WNW,283,1.0,5.0,69,0.00,,,0.00,Wunderground v.1.15,2013-05-16 16:40:00,
2013-05-16 12:45:00,78.0,66.2,30.10,SW,227,2.0,5.0,67,0.00,,,0.00,Wunderground v.1.15,2013-05-16 16:45:00,
2013-05-16 12:55:00,78.8,65.1,30.09,NNE,21,1.0,3.0,63,0.00,,,0.00,Wunderground v.1.15,2013-05-16 16:55:00,
2013-05-16 13:00:00,79.1,66.8,30.10,West,280,2.0,4.0,66,0.00,,,0.00,Wunderground v.1.15,2013-05-16 17:00:00,
2013-05-16 13:05:00,79.1,65.9,30.09,SW,217,2.0,4.0,64,0.00,,,0.00,Wunderground v.1.15,2013-05-16 17:05:00,
2013-05-16 13:10:00,79.4,65.2,30.09,WSW,249,2.0,4.0,62,0.00,,,0.00,Wunderground v.1.15,2013-05-16 17:10:00,
2013-05-16 13:15:00,79.3,65.1,30.09,WSW,242,2.0,6.0,62,0.00,,,0.00,Wunderground v.1.15,2013-05-16 17:15:00,
2013-05-16 13:20:00,78.8,65.1,30.09,SW,223,3.0,3.0,63,0.00,,,0.00,Wunderground v.1.15,2013-05-16 17:20:00,
2013-05-16 13:30:00,78.7,65.5,30.09,SSW,192,3.0,3.0,64,0.00,,,0.00,Wunderground v.1.15,2013-05-16 17:30:00,
2013-05-16 13:40:00,79.1,64.5,30.09,South,188,3.0,3.0,61,0.00,,,0.00,Wunderground v.1.15,2013-05-16 17:40:00,
2013-05-16 13:45:00,78.8,65.6,30.09,West,263,3.0,3.0,64,0.00,,,0.00,Wunderground v.1.15,2013-05-16 17:45:00,
2013-05-16 13:50:00,78.7,64.6,30.09,SW,234,2.0,4.0,62,0.00,,,0.00,Wunderground v.1.15,2013-05-16 17:50:00,
2013-05-16 14:00:00,78.7,64.6,30.08,SSW,200,2.0,2.0,62,0.00,,,0.00,Wunderground v.1.15,2013-05-16 18:00:00,
2013-05-16 14:05:00,78.7,64.6,30.08,WSW,250,2.0,5.0,62,0.00,,,0.00,Wunderground v.1.15,2013-05-16 18:05:00,
2013-05-16 14:15:00,78.7,65.0,30.08,South,187,2.0,3.0,63,0.00,,,0.00,Wunderground v.1.15,2013-05-16 18:15:00,
2013-05-16 14:20:00,78.9,65.2,30.08,South,187,2.0,5.0,63,0.00,,,0.00,Wunderground v.1.15,2013-05-16 18:20:00,
2013-05-16 14:30:00,79.0,65.3,30.07,South,180,2.0,2.0,63,0.00,,,0.00,Wunderground v.1.15,2013-05-16 18:30:00,
2013-05-16 14:35:00,78.9,66.1,30.07,SSE,157,2.0,2.0,65,0.00,,,0.00,Wunderground v.1.15,2013-05-16 18:35:00,
2013-05-16 14:45:00,78.5,65.3,30.07,SSW,199,3.0,4.0,64,0.00,,,0.00,Wunderground v.1.15,2013-05-16 18:45:00,
2013-05-16 14:55:00,79.5,64.4,30.07,SSE,153,4.0,4.0,60,0.00,,,0.00,Wunderground v.1.15,2013-05-16 18:55:00,
2013-05-16 15:00:00,79.8,64.7,30.06,SSE,157,4.0,12.0,60,0.00,,,0.00,Wunderground v.1.15,2013-05-16 19:00:00,
2013-05-16 15:05:00,80.0,63.9,30.06,South,171,5.0,12.0,58,0.00,,,0.00,Wunderground v.1.15,2013-05-16 19:05:00,
2013-05-16 15:15:00,80.3,64.2,30.05,South,178,4.0,5.0,58,0.00,,,0.00,Wunderground v.1.15,2013-05-16 19:15:00,
2013-05-16 15:20:00,80.4,64.3,30.06,WNW,284,2.0,2.0,58,0.00,,,0.00,Wunderground v.1.15,2013-05-16 19:20:00,
2013-05-16 15:25:00,80.7,64.5,30.06,South,190,1.0,2.0,58,0.00,,,0.00,Wunderground v.1.15,2013-05-16 19:25:00,
2013-05-16 15:35:00,81.0,64.8,30.06,SW,223,3.0,3.0,58,0.00,,,0.00,Wunderground v.1.15,2013-05-16 19:35:00,
2013-05-16 15:40:00,81.0,64.8,30.05,SSE,155,3.0,3.0,58,0.00,,,0.00,Wunderground v.1.15,2013-05-16 19:40:00,
2013-05-16 15:50:00,81.8,64.6,30.05,South,177,2.0,2.0,56,0.00,,,0.00,Wunderground v.1.15,2013-05-16 19:50:00,
2013-05-16 15:55:00,82.0,62.6,30.04,SSW,192,3.0,3.0,52,0.00,,,0.00,Wunderground v.1.15,2013-05-16 19:55:00,
2013-05-16 16:00:00,82.1,63.3,30.04,SW,223,2.0,6.0,53,0.00,,,0.00,Wunderground v.1.15,2013-05-16 20:00:00,
2013-05-16 16:05:00,81.9,63.1,30.04,SSE,160,3.0,6.0,53,0.00,,,0.00,Wunderground v.1.15,2013-05-16 20:05:00,
2013-05-16 16:10:00,82.3,62.9,30.04,South,176,2.0,3.0,52,0.00,,,0.00,Wunderground v.1.15,2013-05-16 20:10:00,
2013-05-16 16:20:00,82.4,64.1,30.04,SSW,201,3.0,3.0,54,0.00,,,0.00,Wunderground v.1.15,2013-05-16 20:20:00,
2013-05-16 16:25:00,82.7,63.8,30.04,SW,225,2.0,3.0,53,0.00,,,0.00,Wunderground v.1.15,2013-05-16 20:25:00,
2013-05-16 16:35:00,82.5,62.0,30.04,West,276,3.0,4.0,50,0.00,,,0.00,Wunderground v.1.15,2013-05-16 20:35:00,
2013-05-16 16:45:00,82.2,62.3,30.04,SSE,167,2.0,3.0,51,0.00,,,0.00,Wunderground v.1.15,2013-05-16 20:45:00,
2013-05-16 16:50:00,82.6,63.2,30.04,South,189,2.0,2.0,52,0.00,,,0.00,Wunderground v.1.15,2013-05-16 20:50:00,
2013-05-16 16:55:00,82.6,61.5,30.03,SSW,192,3.0,3.0,49,0.00,,,0.00,Wunderground v.1.15,2013-05-16 20:55:00,
2013-05-16 17:05:00,82.4,61.9,30.03,SW,215,3.0,3.0,50,0.00,,,0.00,Wunderground v.1.15,2013-05-16 21:05:00,
2013-05-16 17:10:00,82.1,62.2,30.03,West,271,4.0,4.0,51,0.00,,,0.00,Wunderground v.1.15,2013-05-16 21:10:00,
2013-05-16 17:20:00,82.3,62.9,30.03,WSW,245,3.0,3.0,52,0.00,,,0.00,Wunderground v.1.15,2013-05-16 21:20:00,
2013-05-16 17:25:00,82.5,63.1,30.03,SSW,209,3.0,3.0,52,0.00,,,0.00,Wunderground v.1.15,2013-05-16 21:25:00,
2013-05-16 17:35:00,81.9,63.1,30.03,SSW,194,3.0,5.0,53,0.00,,,0.00,Wunderground v.1.15,2013-05-16 21:35:00,
2013-05-16 17:40:00,81.7,63.4,30.03,South,178,3.0,4.0,54,0.00,,,0.00,Wunderground v.1.15,2013-05-16 21:40:00,
2013-05-16 17:45:00,81.1,62.9,30.03,South,184,5.0,5.0,54,0.00,,,0.00,Wunderground v.1.15,2013-05-16 21:45:00,
2013-05-16 17:50:00,81.1,63.9,30.03,South,178,4.0,4.0,56,0.00,,,0.00,Wunderground v.1.15,2013-05-16 21:50:00,
2013-05-16 17:55:00,81.2,63.5,30.03,South,180,3.0,4.0,55,0.00,,,0.00,Wunderground v.1.15,2013-05-16 21:55:00,
2013-05-16 18:05:00,80.8,61.5,30.03,South,171,4.0,7.0,52,0.00,,,0.00,Wunderground v.1.15,2013-05-16 22:05:00,
2013-05-16 18:10:00,80.8,62.6,30.03,SSW,195,4.0,4.0,54,0.00,,,0.00,Wunderground v.1.15,2013-05-16 22:10:00,
2013-05-16 18:15:00,80.9,62.7,30.03,SSE,163,2.0,4.0,54,0.00,,,0.00,Wunderground v.1.15,2013-05-16 22:15:00,
2013-05-16 18:20:00,80.3,62.7,30.03,South,170,2.0,2.0,55,0.00,,,0.00,Wunderground v.1.15,2013-05-16 22:20:00,
2013-05-16 18:30:00,80.3,63.7,30.03,SSE,167,1.0,1.0,57,0.00,,,0.00,Wunderground v.1.15,2013-05-16 22:30:00,
2013-05-16 18:35:00,80.2,63.6,30.03,South,176,1.0,3.0,57,0.00,,,0.00,Wunderground v.1.15,2013-05-16 22:35:00,
2013-05-16 18:45:00,79.9,66.2,30.03,SSE,168,1.0,2.0,63,0.00,,,0.00,Wunderground v.1.15,2013-05-16 22:45:00,
2013-05-16 18:50:00,79.8,66.1,30.03,South,169,1.0,3.0,63,0.00,,,0.00,Wunderground v.1.15,2013-05-16 22:50:00,
2013-05-16 18:55:00,79.6,66.8,30.03,South,170,1.0,3.0,65,0.00,,,0.00,Wunderground v.1.15,2013-05-16 22:55:00,
2013-05-16 19:00:00,79.4,65.7,30.03,South,187,0.0,3.0,63,0.00,,,0.00,Wunderground v.1.15,2013-05-16 23:00:00,
2013-05-16 19:10:00,78.7,66.8,30.03,South,173,1.0,1.0,67,0.00,,,0.00,Wunderground v.1.15,2013-05-16 23:10:00,
2013-05-16 19:15:00,78.5,67.5,30.03,South,173,0.0,1.0,69,0.00,,,0.00,Wunderground v.1.15,2013-05-16 23:15:00,
2013-05-16 19:25:00,77.1,66.6,30.03,South,173,0.0,0.0,70,0.00,,,0.00,Wunderground v.1.15,2013-05-16 23:25:00,
2013-05-16 19:35:00,75.7,65.6,30.03,South,173,0.0,0.0,71,0.00,,,0.00,Wunderground v.1.15,2013-05-16 23:35:00,
2013-05-16 19:40:00,75.1,65.9,30.03,South,173,0.0,0.0,73,0.00,,,0.00,Wunderground v.1.15,2013-05-16 23:40:00,
2013-05-16 19:45:00,74.3,65.9,30.03,South,173,0.0,0.0,75,0.00,,,0.00,Wunderground v.1.15,2013-05-16 23:45:00,
2013-05-16 19:55:00,73.1,65.8,30.03,ESE,109,0.0,0.0,78,0.00,,,0.00,Wunderground v.1.15,2013-05-16 23:55:00,
2013-05-16 20:00:00,72.4,65.9,30.03,ESE,111,0.0,0.0,80,0.00,,,0.00,Wunderground v.1.15,2013-05-17 00:00:00,
2013-05-16 20:10:00,71.3,65.5,30.04,ESE,111,0.0,0.0,82,0.00,,,0.00,Wunderground v.1.15,2013-05-17 00:10:00,
2013-05-16 20:20:00,70.6,65.2,30.04,ESE,111,0.0,0.0,83,0.00,,,0.00,Wunderground v.1.15,2013-05-17 00:20:00,
2013-05-16 20:25:00,70.2,65.1,30.04,ESE,111,0.0,0.0,84,0.00,,,0.00,Wunderground v.1.15,2013-05-17 00:25:00,
2013-05-16 20:35:00,69.3,64.3,30.04,ESE,111,0.0,0.0,84,0.00,,,0.00,Wunderground v.1.15,2013-05-17 00:35:00,
2013-05-16 20:40:00,68.8,64.1,30.04,ESE,111,0.0,0.0,85,0.00,,,0.00,Wunderground v.1.15,2013-05-17 00:40:00,
2013-05-16 20:50:00,67.8,63.8,30.04,ESE,110,0.0,0.0,87,0.00,,,0.00,Wunderground v.1.15,2013-05-17 00:50:00,
2013-05-16 20:55:00,67.4,63.7,30.04,ESE,111,0.0,0.0,88,0.00,,,0.00,Wunderground v.1.15,2013-05-17 00:55:00,
2013-05-16 21:05:00,66.6,63.3,30.04,ESE,110,0.0,0.0,89,0.00,,,0.00,Wunderground v.1.15,2013-05-17 01:05:00,
2013-05-16 21:10:00,66.3,63.0,30.05,ESE,111,0.0,0.0,89,0.00,,,0.00,Wunderground v.1.15,2013-05-17 01:10:00,
2013-05-16 21:20:00,65.7,62.7,30.05,ESE,111,0.0,0.0,90,0.00,,,0.00,Wunderground v.1.15,2013-05-17 01:20:00,
2013-05-16 21:25:00,65.4,62.4,30.05,ESE,111,0.0,0.0,90,0.00,,,0.00,Wunderground v.1.15,2013-05-17 01:25:00,
2013-05-16 21:30:00,65.1,62.4,30.05,ESE,111,0.0,0.0,91,0.00,,,0.00,Wunderground v.1.15,2013-05-17 01:30:00,
2013-05-16 21:35:00,64.8,62.1,30.06,ESE,111,0.0,0.0,91,0.00,,,0.00,Wunderground v.1.15,2013-05-17 01:35:00,
2013-05-16 21:45:00,64.4,62.0,30.06,ESE,110,0.0,0.0,92,0.00,,,0.00,Wunderground v.1.15,2013-05-17 01:45:00,
2013-05-16 21:50:00,64.1,61.7,30.06,ESE,111,0.0,0.0,92,0.00,,,0.00,Wunderground v.1.15,2013-05-17 01:50:00,
2013-05-16 22:00:00,63.6,61.2,30.06,ESE,111,0.0,0.0,92,0.00,,,0.00,Wunderground v.1.15,2013-05-17 02:00:00,
2013-05-16 22:05:00,63.4,61.0,30.06,ESE,111,0.0,0.0,92,0.00,,,0.00,Wunderground v.1.15,2013-05-17 02:05:00,
2013-05-16 22:10:00,63.3,60.9,30.06,ESE,111,0.0,0.0,92,0.00,,,0.00,Wunderground v.1.15,2013-05-17 02:10:00,
2013-05-16 22:20:00,63.0,60.9,30.06,ESE,111,0.0,0.0,93,0.00,,,0.00,Wunderground v.1.15,2013-05-17 02:20:00,
2013-05-16 22:25:00,62.9,60.8,30.07,ESE,111,0.0,0.0,93,0.00,,,0.00,Wunderground v.1.15,2013-05-17 02:25:00,
2013-05-16 22:30:00,62.7,60.6,30.07,ESE,111,0.0,0.0,93,0.00,,,0.00,Wunderground v.1.15,2013-05-17 02:30:00,
2013-05-16 22:40:00,62.4,60.3,30.07,ESE,111,0.0,0.0,93,0.00,,,0.00,Wunderground v.1.15,2013-05-17 02:40:00,
2013-05-16 22:50:00,62.1,60.4,30.07,ESE,110,0.0,0.0,94,0.00,,,0.00,Wunderground v.1.15,2013-05-17 02:50:00,
2013-05-16 22:55:00,61.9,60.2,30.07,ESE,110,0.0,0.0,94,0.00,,,0.00,Wunderground v.1.15,2013-05-17 02:55:00,
2013-05-16 23:05:00,61.6,59.9,30.07,ESE,111,0.0,0.0,94,0.00,,,0.00,Wunderground v.1.15,2013-05-17 03:05:00,
2013-05-16 23:10:00,61.4,59.7,30.07,ESE,110,0.0,0.0,94,0.00,,,0.00,Wunderground v.1.15,2013-05-17 03:10:00,
2013-05-16 23:15:00,61.1,59.4,30.07,ESE,110,0.0,0.0,94,0.00,,,0.00,Wunderground v.1.15,2013-05-17 03:15:00,
2013-05-16 23:20:00,61.0,59.3,30.07,ESE,111,0.0,0.0,94,0.00,,,0.00,Wunderground v.1.15,2013-05-17 03:20:00,
2013-05-16 23:30:00,60.7,59.0,30.07,ESE,111,0.0,0.0,94,0.00,,,0.00,Wunderground v.1.15,2013-05-17 03:30:00,
2013-05-16 23:35:00,60.5,59.1,30.07,ESE,111,0.0,0.0,95,0.00,,,0.00,Wunderground v.1.15,2013-05-17 03:35:00,
2013-05-16 23:40:00,60.4,59.0,30.07,ESE,111,0.0,0.0,95,0.00,,,0.00,Wunderground v.1.15,2013-05-17 03:40:00,
2013-05-16 23:50:00,60.1,58.7,30.08,ESE,111,0.0,0.0,95,0.00,,,0.00,Wunderground v.1.15,2013-05-17 03:50:00,
2013-05-16 23:55:00,60.0,58.6,30.07,ESE,110,0.0,0.0,95,0.00,,,0.00,Wunderground v.1.15,2013-05-17 03:55:00,